Petersburg, AK

2:19 AM AKDT on September 22, 2014 (GMT -0800)
Johnson Petersburg | Change Station
CLOSE
Current Station
Airport
Location: Petersburg,
Elevation: 0 ft
Nearby Weather Stations

Elev 0 ft 56.82 °N, 132.97 °W | Updated 3 minutes ago

Overcast
Overcast
52 °F
Feels Like 52 °F
N
0
Wind Variable Wind from North

Today
High -- | Low -- °F
--% Chance of Precip.
Yesterday
High -- | Low -- °F
Precip. -- in
6:38 AM 6:51 PM
Waning Crescent, 3% visible
Pressure 29.74 in
Visibility 10.0 miles
Clouds Scattered Clouds 3600 ft
Mostly Cloudy 4300 ft
Overcast 7500 ft
Dew Point 48 °F
Humidity 88%
Rainfall 0.01 in
Snow Depth Not available.
UV 0 out of 12
Pollen Not available.
Air Quality Not available.
Flu Activity Not available.
METAR PAPG 221016Z 00000KT 10SM SCT036 BKN043 OVC075 11/09 A2974 RMK AO1

More Conditions Fewer Conditions

Pressure 29.74 in
Visibility 10.0 miles
Clouds Scattered Clouds 3600 ft
Mostly Cloudy 4300 ft
Overcast 7500 ft
Dew Point 48 °F
Humidity 88%
Rainfall 0.01 in
Snow Depth Not available.
UV 0 out of 12
Pollen Not available.
Air Quality Not available.
Flu Activity Not available.
METAR PAPG 221016Z 00000KT 10SM SCT036 BKN043 OVC075 11/09 A2974 RMK AO1

More Conditions Fewer Conditions

10-Day Weather Forecast

Almanac

Astronomy

Sep. 22, 2014 Rise Set
Actual Time 6:38 AM AKDT 6:51 PM AKDT
Civil Twilight 6:00 AM AKDT 7:29 PM AKDT
Nautical Twilight 5:15 AM AKDT 8:15 PM AKDT
Astronomical Twilight 4:26 AM AKDT 9:03 PM AKDT
Moon 5:03 AM AKDT 6:08 PM AKDT
Length of Visible Light 13h 29m
Length of Day
12h 13m
Tomorrow will be 4m 47s shorter.
Waning Crescent, 3% of the Moon is Illuminated
Today
Waning Crescent
Sep 24
New
Oct 1
First Quarter
Oct 8
Full
Oct 15
Last Quarter

Today's Extremes

State Highs State Lows

Community

WunderPhotos

Upload Photos

1,755,404 photos uploaded!

Nearby

Snow Depth

Station Depth Elevation
Point Mackenzie 1 in 200 ft
Grouse Creek Divide 0 in 700 ft
Granite Creek 0 in 1240 ft
Moraine 0 in 2100 ft
Cooper Lake 16 in 1200 ft

Earthquake Activity

City Distance Mag. Time & Date
No recent earthquake activity has been reported nearby.
Minimum magnitude displayed is 2.5.

Coastal Water Temperatures

Place Temperature
No Stations Reporting

Nearby Weather Stations